Terminal Aerodrome Forecast
Issued by NWS

Home | Current Version | Previous Version | Text Only | Print | Product List | Glossary On
Versions: 1 2 3 4 5 6 7 8 9 10 11 12 13 14 15 16
000
FTUS43 KAPX 071726
TAFAPN
TAF
KAPN 071726Z 0718/0818 31012G18KT P6SM OVC022
      TEMPO 0718/0719 BKN015 OVC022
     FM072000 33013G19KT P6SM BKN030
     FM072200 33011KT P6SM SKC
     FM080400 00000KT P6SM SKC
     FM081600 12007KT P6SM FEW040 SCT250=

USA.gov is the U.S. government's official web portal to all federal, state and local government web resources and services.